Reynoldsville, PA (15851)

3:46 AM EDT on July 25, 2014 (GMT -0400)
Holly Terrace (KPAFALLS2) Elev 1473 ft | 41.14 °N, 78.81 °W | Change Station

Current weather conditions updated 7 seconds ago

Clear
Clear
46.6 °F
Feels Like 47 °F
N
0.0
Wind Variable Wind from South
Gusts 0.0 mph

Today is forecast to be Warmer than yesterday.

Today
High -- | Low -- °F
--% Chance of Precip.
Yesterday
High -- | Low -- °F
Precip. -- in
6:04 AM 8:38 PM
Waning Crescent, 2% visible
Pressure 30.04 in
Visibility 10.0 miles
Clouds Clear
Windchill 47 °F
Dew Point 46 °F
Humidity 98%
Rainfall 0.00 in
Snow Depth Not available.
UV 0 out of 12
Pollen 4.50 out of 12
Air Quality Not available.
Flu Activity Not available.
METAR KDUJ 250656Z AUTO 10003KT 10SM CLR 11/09 A3006 RMK AO2 SLP173 T01110094

More Conditions Fewer Conditions

Pressure 30.04 in
Visibility 10.0 miles
Clouds Clear
Windchill 47 °F
Dew Point 46 °F
Humidity 98%
Rainfall 0.00 in
Snow Depth Not available.
UV 0 out of 12
Pollen 4.50 out of 12
Air Quality Not available.
Flu Activity Not available.
METAR KDUJ 250656Z AUTO 10003KT 10SM CLR 11/09 A3006 RMK AO2 SLP173 T01110094

More Conditions Fewer Conditions

10-Day Weather Forecast

Almanac

Astronomy

Jul. 25, 2014 Rise Set
Actual Time 6:04 AM EDT 8:38 PM EDT
Civil Twilight 5:32 AM EDT 9:10 PM EDT
Nautical Twilight 4:53 AM EDT 9:49 PM EDT
Astronomical Twilight 4:08 AM EDT 10:34 PM EDT
Moon 5:02 AM EDT 7:34 PM EDT
Length of Visible Light 15h 37m
Length of Day
14h 34m
Tomorrow will be 1m 52s shorter.
Waning Crescent, 2% of the Moon is Illuminated
Today
Waning Crescent
Jul 26
New
Aug 3
First Quarter
Aug 10
Full
Aug 17
Last Quarter

Today's Extremes

State Highs State Lows

Community

WunderPhotos

Upload Photos

1,737,273 photos uploaded!

Nearby

Snow Depth

Station Depth Elevation
No new snow has been reported.

Earthquake Activity

City Distance Mag. Time & Date
No recent earthquake activity has been reported nearby.
Minimum magnitude displayed is 2.5.

Coastal Water Temperatures

Place Temperature
No Stations Reporting

Nearby Weather Stations

Station Location Temp. Windchill Dew Point Humidity Wind Precip. Elev Updated Type
Holly Terrace, Falls Creek, PA 46.6 °F 47 °F 46 °F 98% South  at  0.0 mph 0.00 in / hr 1473 ft 3:46 AM EDT Rapid Fire
Brookville, PA, Brookville, PA 47.5 °F 48 °F 47 °F 97% South  at  0.0 mph 0.00 in / hr 1453 ft 3:46 AM EDT Rapid Fire
West End, Punxsutawney, PA 49.7 °F 50 °F 47 °F 91% North  at  0.0 mph 0.00 in / hr 1279 ft 3:46 AM EDT Rapid Fire
Valley Overview, Brookville, PA 49.4 °F 49 °F 48 °F 93% NE  at  0.0 mph 0.00 in / hr 1608 ft 3:46 AM EDT Rapid Fire
Heathville Road, Summerville, PA 49.1 °F 49 °F 48 °F 94% North  at  0.0 mph 0.00 in / hr 1217 ft 3:46 AM EDT Rapid Fire

Show More Stations Show Fewer Stations